Etusivu
METAR-TAF:

METAR-TAF

Lentoasemat :

Châteaudun, Ranska

Leveyspiiri: 48-03N, Pituuspiiri: 001-23E, korkeus merenpinnasta: 134 m

Tämänhetkinen sää

Tämä raportti tehtiin 38 minuuttia sitten, kello 20.00 UTC
Tuuli 5 kn pohjoisesta/koillisesta
Lämpötila 20°C
Kosteus 60%
Ilmanpaine 1020 hPa
Näkyvyys 10 km tai enemmän
ei pilviä alle 1500 m:ssä eikä cumulonimbus-pilviä

METAR: LFOC 232000Z AUTO 03005KT CAVOK 20/12 Q1020

Aika: 22:38 (20:38 UTC)

Sääennuste

Tämä raportti tehtiin 12 tuntia ja 38 minuuttia sitten, kello 08.00 UTC
Ennuste voimassa 23. päivästä klo 09 UTC - 24. päivään klo 09 UTC
Tuuli 10 kn idästä/koillisesta
Näkyvyys 10 km tai enemmän
ei pilviä alle 1500 m:ssä eikä cumulonimbus-pilviä

TAF: LFOC 230800Z 2309/2409 06010KT CAVOK

Säähavainnot ja -ennusteet yli 4000 lentoasemalta (METAR- ja TAF-raportit).

Käytössä olevat sääasemat on merkitty karttaan keltaisilla ja punaisilla pisteillä.

Aseta hiiri pisteen päälle nähdäksesi sääaseman nimen.

Klikkaa sitten nähdäksesi säähavainnot ja -ennusteet.

Kartan vaihtaminen: klikkaa mustalla rastilla varustettuja vihreitä pisteitä, niin voit zoomata sisään; viivalla varustettua vihreää pistettä, niin voit zoomata ulos tai vihreitä nuolia, niin pääset viereisille kartoille.


METAR-TAF: